createdAt,value
2019-04-27T00:00:59.119Z,11.03
2019-04-27T00:03:42.842Z,8.27
2019-04-27T00:06:13.492Z,9.07
2019-04-27T00:08:47.641Z,8.70
2019-04-27T00:11:37.463Z,8.00
2019-04-27T00:14:05.254Z,9.73
2019-04-27T00:16:57.722Z,7.97
2019-04-27T00:19:35.456Z,7.27
2019-04-27T00:22:15.663Z,7.60
2019-04-27T00:24:44.370Z,9.30
2019-04-27T00:27:13.426Z,7.50
2019-04-27T00:29:43.183Z,8.13
2019-04-27T00:32:13.194Z,7.40
2019-04-27T00:34:43.124Z,7.90
2019-04-27T00:37:30.042Z,7.07
2019-04-27T00:40:03.847Z,9.00
2019-04-27T00:42:33.361Z,7.30
2019-04-27T00:45:03.310Z,6.97
2019-04-27T00:47:35.026Z,7.50
2019-04-27T00:50:04.870Z,7.03
2019-04-27T00:52:34.828Z,6.57
2019-04-27T00:55:04.172Z,7.60
2019-04-27T00:57:59.020Z,7.83
2019-04-27T01:00:59.311Z,7.00
2019-04-27T01:03:35.372Z,6.83
2019-04-27T01:06:04.507Z,8.23
2019-04-27T01:08:34.281Z,7.47
2019-04-27T01:11:03.204Z,8.03
2019-04-27T01:13:34.682Z,8.33
2019-04-27T01:16:03.774Z,7.90
2019-04-27T01:18:32.400Z,6.93
2019-04-27T01:21:01.093Z,6.50
2019-04-27T01:23:30.866Z,6.13
2019-04-27T01:26:34.492Z,6.20
2019-04-27T01:29:06.903Z,5.70
2019-04-27T01:31:35.688Z,5.93
2019-04-27T01:34:04.540Z,5.80
2019-04-27T01:36:33.210Z,6.50
2019-04-27T01:39:01.901Z,3.93
2019-04-27T01:41:32.258Z,3.83
2019-04-27T01:44:00.936Z,3.80
2019-04-27T01:46:29.772Z,5.90
2019-04-27T01:48:59.102Z,3.93
2019-04-27T01:51:29.421Z,4.53
2019-04-27T01:53:59.359Z,4.50
2019-04-27T01:56:29.353Z,5.77
2019-04-27T01:58:59.503Z,5.13
2019-04-27T02:01:50.666Z,4.63
2019-04-27T02:04:26.153Z,4.80
2019-04-27T02:06:56.761Z,3.77
2019-04-27T02:09:25.693Z,4.77
2019-04-27T02:11:54.388Z,7.17
2019-04-27T02:14:23.067Z,5.37
2019-04-27T02:16:51.822Z,3.73
2019-04-27T02:19:20.626Z,4.87
2019-04-27T02:21:51.505Z,4.17
2019-04-27T02:24:22.259Z,8.40
2019-04-27T02:26:51.142Z,4.33
2019-04-27T02:29:35.333Z,4.60
2019-04-27T02:32:22.068Z,5.50
2019-04-27T02:34:57.110Z,4.10
2019-04-27T02:37:25.784Z,4.47
2019-04-27T02:39:54.586Z,5.07
2019-04-27T02:42:25.175Z,7.77
2019-04-27T02:44:54.019Z,4.60
2019-04-27T02:47:22.760Z,5.10
2019-04-27T02:49:51.479Z,5.50
2019-04-27T02:52:25.957Z,6.90
2019-04-27T02:54:54.598Z,4.33
2019-04-27T02:57:23.174Z,4.47
2019-04-27T02:59:51.941Z,5.00
2019-04-27T03:02:29.970Z,4.33
2019-04-27T03:05:00.695Z,4.70
2019-04-27T03:07:30.364Z,3.90
2019-04-27T03:10:01.626Z,5.40
2019-04-27T03:12:33.846Z,4.67
2019-04-27T03:15:30.360Z,4.20
2019-04-27T03:18:12.166Z,3.67
2019-04-27T03:21:00.311Z,4.20
2019-04-27T03:23:30.397Z,5.10
2019-04-27T03:26:14.850Z,3.87
2019-04-27T03:28:43.652Z,4.97
2019-04-27T03:31:13.960Z,5.53
2019-04-27T03:33:43.444Z,4.47
2019-04-27T03:36:13.176Z,4.40
2019-04-27T03:38:42.379Z,4.30
2019-04-27T03:41:11.149Z,3.73
2019-04-27T03:43:40.384Z,3.97
2019-04-27T03:46:10.369Z,5.43
2019-04-27T03:48:40.700Z,4.90
2019-04-27T03:51:31.065Z,5.83
2019-04-27T03:54:19.334Z,5.77
2019-04-27T03:56:51.527Z,4.37
2019-04-27T03:59:42.818Z,3.60
2019-04-27T04:02:11.552Z,4.00
2019-04-27T04:04:40.614Z,5.33
2019-04-27T04:07:19.728Z,5.13
2019-04-27T04:09:50.258Z,3.47
2019-04-27T04:12:40.010Z,5.53
2019-04-27T04:15:12.504Z,5.20
2019-04-27T04:17:41.256Z,7.37
2019-04-27T04:20:10.346Z,4.53
2019-04-27T04:22:40.364Z,3.03
2019-04-27T04:25:10.751Z,4.03
2019-04-27T04:27:42.684Z,3.23
2019-04-27T04:30:12.297Z,2.97
2019-04-27T04:32:41.251Z,2.60
2019-04-27T04:35:21.609Z,2.53
2019-04-27T04:37:52.688Z,3.20
2019-04-27T04:40:25.203Z,3.53
2019-04-27T04:43:03.803Z,2.60
2019-04-27T04:45:52.294Z,3.10
2019-04-27T04:48:21.126Z,2.67
2019-04-27T04:50:50.220Z,3.87
2019-04-27T04:53:20.643Z,4.30
2019-04-27T04:55:49.708Z,5.67
2019-04-27T04:58:20.985Z,3.03
2019-04-27T05:00:50.221Z,3.97
2019-04-27T05:03:21.465Z,4.20
2019-04-27T05:05:50.155Z,3.27
2019-04-27T05:08:19.093Z,3.60
2019-04-27T05:10:49.671Z,3.30
2019-04-27T05:13:19.331Z,4.03
2019-04-27T05:15:48.800Z,4.60
2019-04-27T05:18:19.124Z,3.50
2019-04-27T05:20:54.706Z,6.17
2019-04-27T05:23:23.432Z,4.83
2019-04-27T05:25:51.949Z,5.23
2019-04-27T05:28:20.469Z,6.67
2019-04-27T05:30:49.077Z,6.53
2019-04-27T05:33:18.766Z,5.10
2019-04-27T05:35:49.235Z,4.13
2019-04-27T05:38:19.280Z,3.17
2019-04-27T05:40:49.969Z,3.17
2019-04-27T05:43:20.386Z,2.90
2019-04-27T05:46:29.799Z,3.00
2019-04-27T05:49:06.086Z,5.50
2019-04-27T05:51:36.637Z,4.00
2019-04-27T05:54:00.994Z,5.10
2019-04-27T05:56:29.520Z,4.00
2019-04-27T05:59:00.315Z,4.70
2019-04-27T06:01:29.717Z,4.17
2019-04-27T06:03:58.913Z,3.50
2019-04-27T06:06:29.383Z,5.80
2019-04-27T06:08:59.469Z,2.90
2019-04-27T06:11:28.736Z,4.20
2019-04-27T06:13:59.203Z,3.40
2019-04-27T06:16:29.382Z,4.53
2019-04-27T06:18:59.462Z,3.23
2019-04-27T06:21:29.476Z,3.50
2019-04-27T06:23:58.884Z,4.20
2019-04-27T06:26:29.909Z,4.43
2019-04-27T06:28:59.511Z,2.97
2019-04-27T06:31:29.712Z,4.20
2019-04-27T06:33:59.718Z,4.13
2019-04-27T06:36:28.786Z,3.70
2019-04-27T06:38:58.941Z,3.07
2019-04-27T06:41:29.577Z,3.30
2019-04-27T06:43:59.334Z,3.67
2019-04-27T06:46:28.818Z,4.50
2019-04-27T06:48:59.337Z,3.23
2019-04-27T06:51:28.683Z,3.83
2019-04-27T06:53:59.244Z,3.63
2019-04-27T06:56:28.714Z,2.70
2019-04-27T06:58:59.570Z,3.40
2019-04-27T07:01:29.839Z,4.40
2019-04-27T07:03:59.778Z,3.67
2019-04-27T07:06:28.670Z,4.57
2019-04-27T07:08:57.306Z,4.23
2019-04-27T07:11:25.987Z,4.23
2019-04-27T07:13:54.484Z,2.57
2019-04-27T07:16:23.152Z,5.23
2019-04-27T07:18:51.841Z,4.10
2019-04-27T07:21:24.731Z,2.60
2019-04-27T07:23:56.633Z,5.83
2019-04-27T07:26:26.759Z,4.73
2019-04-27T07:28:55.387Z,3.57
2019-04-27T07:31:24.214Z,5.93
2019-04-27T07:33:52.956Z,3.53
2019-04-27T07:36:21.596Z,4.00
2019-04-27T07:38:52.319Z,3.80
2019-04-27T07:41:21.744Z,3.00
2019-04-27T07:44:19.409Z,4.50
2019-04-27T07:47:09.623Z,4.60
2019-04-27T07:49:39.110Z,4.83
2019-04-27T07:52:08.728Z,4.53
2019-04-27T07:54:38.554Z,5.07
2019-04-27T07:57:09.827Z,7.30
2019-04-27T07:59:42.089Z,4.83
2019-04-27T08:02:11.132Z,5.30
2019-04-27T08:04:40.095Z,4.43
2019-04-27T08:07:09.290Z,3.63
2019-04-27T08:09:39.775Z,5.13
2019-04-27T08:12:10.729Z,4.90
2019-04-27T08:14:39.592Z,3.63
2019-04-27T08:17:09.771Z,5.17
2019-04-27T08:19:39.452Z,5.43
2019-04-27T08:22:09.679Z,3.57
2019-04-27T08:24:39.582Z,4.87
2019-04-27T08:27:20.625Z,5.40
2019-04-27T08:30:09.379Z,3.90
2019-04-27T08:32:42.001Z,5.30
2019-04-27T08:35:10.832Z,4.27
2019-04-27T08:37:39.519Z,5.10
2019-04-27T08:40:10.073Z,5.30
2019-04-27T08:42:39.242Z,4.37
2019-04-27T08:45:09.448Z,4.83
2019-04-27T08:47:39.474Z,4.30
2019-04-27T08:50:09.302Z,4.90
2019-04-27T08:52:41.617Z,5.53
2019-04-27T08:55:10.426Z,4.57
2019-04-27T08:57:39.164Z,6.93
2019-04-27T09:00:09.435Z,4.60
2019-04-27T09:02:44.473Z,6.33
2019-04-27T09:05:09.579Z,5.00
2019-04-27T09:08:01.081Z,5.70
2019-04-27T09:10:49.800Z,6.20
2019-04-27T09:13:25.037Z,4.70
2019-04-27T09:16:31.104Z,3.87
2019-04-27T09:19:04.390Z,6.37
2019-04-27T09:21:52.458Z,7.50
2019-04-27T09:24:21.106Z,5.17
2019-04-27T09:26:49.784Z,6.47
2019-04-27T09:29:19.802Z,5.57
2019-04-27T09:31:49.212Z,5.47
2019-04-27T09:34:19.052Z,5.10
2019-04-27T09:36:48.035Z,5.47
2019-04-27T09:39:16.934Z,5.73
2019-04-27T09:41:46.043Z,5.67
2019-04-27T09:44:16.713Z,5.60
2019-04-27T09:46:45.478Z,5.90
2019-04-27T09:49:15.713Z,5.60
2019-04-27T09:51:46.012Z,4.83
2019-04-27T09:54:15.926Z,4.40
2019-04-27T09:56:46.620Z,3.20
2019-04-27T09:59:16.403Z,3.57
2019-04-27T10:01:46.539Z,5.73
2019-04-27T10:04:15.670Z,4.23
2019-04-27T10:06:46.506Z,5.07
2019-04-27T10:09:16.326Z,10.13
2019-04-27T10:11:44.968Z,4.53
2019-04-27T10:14:13.763Z,7.27
2019-04-27T10:16:42.540Z,6.90
2019-04-27T10:19:11.230Z,5.90
2019-04-27T10:21:40.103Z,7.00
2019-04-27T10:24:08.861Z,5.13
2019-04-27T10:26:37.471Z,3.90
2019-04-27T10:29:06.228Z,6.33
2019-04-27T10:31:34.960Z,6.60
2019-04-27T10:34:03.700Z,7.13
2019-04-27T10:36:41.045Z,8.07
2019-04-27T10:39:13.265Z,4.87
2019-04-27T10:41:42.088Z,6.47
2019-04-27T10:44:10.829Z,7.90
2019-04-27T10:46:39.609Z,5.03
2019-04-27T10:49:08.682Z,6.27
2019-04-27T10:51:37.309Z,5.30
2019-04-27T10:54:06.614Z,5.20
2019-04-27T10:56:36.159Z,7.77
2019-04-27T10:59:07.170Z,6.47
2019-04-27T11:01:36.571Z,7.70
2019-04-27T11:04:15.818Z,5.57
2019-04-27T11:06:47.272Z,5.03
2019-04-27T11:09:16.380Z,6.13
2019-04-27T11:11:46.362Z,6.17
2019-04-27T11:14:15.998Z,4.47
2019-04-27T11:16:45.930Z,5.90
2019-04-27T11:19:16.882Z,5.07
2019-04-27T11:21:46.541Z,3.83
2019-04-27T11:24:15.349Z,4.80
2019-04-27T11:26:43.896Z,5.90
2019-04-27T11:29:12.702Z,5.27
2019-04-27T11:31:41.502Z,4.00
2019-04-27T11:34:10.717Z,3.87
2019-04-27T11:36:46.610Z,3.93
2019-04-27T11:39:18.099Z,5.43
2019-04-27T11:41:46.873Z,3.80
2019-04-27T11:44:17.021Z,2.77
2019-04-27T11:46:47.570Z,4.70
2019-04-27T11:49:16.644Z,5.50
2019-04-27T11:51:46.576Z,5.63
2019-04-27T11:54:15.653Z,3.47
2019-04-27T11:56:44.298Z,4.27
2019-04-27T11:59:13.240Z,4.23
2019-04-27T12:01:41.966Z,2.77
2019-04-27T12:04:10.910Z,4.67
2019-04-27T12:06:39.608Z,3.87
2019-04-27T12:09:08.951Z,4.37
2019-04-27T12:11:37.657Z,5.70
2019-04-27T12:14:06.369Z,4.47
2019-04-27T12:16:36.026Z,2.67
2019-04-27T12:19:06.550Z,4.07
2019-04-27T12:21:36.168Z,2.50
2019-04-27T12:24:05.260Z,2.50
2019-04-27T12:26:57.417Z,2.50
2019-04-27T12:29:45.427Z,2.80
2019-04-27T12:32:16.236Z,5.13
2019-04-27T12:34:46.516Z,4.03
2019-04-27T12:37:16.565Z,1.73
2019-04-27T12:39:46.241Z,2.47
2019-04-27T12:42:16.032Z,2.20
2019-04-27T12:44:44.947Z,4.07
2019-04-27T12:47:13.762Z,2.50
2019-04-27T12:49:42.550Z,2.70
2019-04-27T12:52:11.465Z,2.67
2019-04-27T12:55:00.131Z,3.77
2019-04-27T12:57:46.092Z,2.57
2019-04-27T13:00:19.738Z,3.03
2019-04-27T13:02:48.535Z,4.53
2019-04-27T13:05:17.252Z,2.43
2019-04-27T13:07:45.880Z,2.90
2019-04-27T13:10:15.917Z,3.50
2019-04-27T13:12:46.118Z,5.77
2019-04-27T13:15:15.124Z,2.10
2019-04-27T13:17:44.041Z,4.13
2019-04-27T13:20:12.706Z,2.00
2019-04-27T13:22:41.405Z,4.13
2019-04-27T13:25:10.196Z,5.03
2019-04-27T13:27:38.671Z,2.83
2019-04-27T13:30:10.091Z,2.20
2019-04-27T13:32:39.754Z,2.60
2019-04-27T13:35:08.501Z,2.00
2019-04-27T13:37:42.598Z,1.63
2019-04-27T13:40:13.088Z,3.73
2019-04-27T13:42:57.688Z,3.10
2019-04-27T13:45:48.789Z,3.60
2019-04-27T13:48:38.448Z,3.83
2019-04-27T13:51:10.070Z,3.00
2019-04-27T13:53:38.940Z,1.87
2019-04-27T13:56:17.390Z,2.80
2019-04-27T13:58:46.523Z,1.50
2019-04-27T14:01:15.161Z,1.87
2019-04-27T14:03:45.166Z,2.33
2019-04-27T14:06:14.067Z,3.17
2019-04-27T14:08:42.802Z,2.07
2019-04-27T14:11:11.585Z,1.70
2019-04-27T14:13:40.243Z,2.93
2019-04-27T14:16:08.884Z,3.87
2019-04-27T14:18:38.416Z,3.70
2019-04-27T14:21:09.307Z,1.40
2019-04-27T14:23:39.018Z,1.43
2019-04-27T14:26:08.819Z,1.70
2019-04-27T14:28:37.800Z,2.73
2019-04-27T14:31:06.807Z,1.30
2019-04-27T14:33:35.661Z,2.50
2019-04-27T14:36:04.448Z,3.37
2019-04-27T14:38:33.197Z,2.03
2019-04-27T14:41:02.031Z,2.47
2019-04-27T14:43:30.877Z,2.67
2019-04-27T14:45:59.721Z,1.50
2019-04-27T14:48:29.556Z,3.70
2019-04-27T14:50:59.079Z,2.80
2019-04-27T14:53:28.279Z,3.37
2019-04-27T14:55:58.467Z,4.33
2019-04-27T14:58:28.327Z,2.47
2019-04-27T15:00:58.577Z,2.83
2019-04-27T15:03:27.486Z,2.30
2019-04-27T15:05:56.047Z,2.73
2019-04-27T15:08:25.623Z,1.97
2019-04-27T15:10:54.803Z,2.10
2019-04-27T15:13:23.430Z,2.40
2019-04-27T15:15:52.141Z,2.87
2019-04-27T15:18:22.726Z,3.43
2019-04-27T15:20:51.743Z,3.60
2019-04-27T15:23:20.607Z,3.43
2019-04-27T15:25:49.968Z,3.03
2019-04-27T15:28:22.908Z,4.80
2019-04-27T15:31:23.593Z,4.03
2019-04-27T15:34:23.324Z,4.33
2019-04-27T15:37:28.149Z,1.60
2019-04-27T15:40:22.689Z,2.03
2019-04-27T15:43:13.589Z,4.13
2019-04-27T15:45:42.272Z,2.83
2019-04-27T15:48:10.881Z,3.77
2019-04-27T15:50:39.808Z,3.97
2019-04-27T15:53:12.369Z,3.67
2019-04-27T15:55:40.309Z,3.40
2019-04-27T15:58:09.796Z,4.30
2019-04-27T16:00:38.881Z,5.60
2019-04-27T16:03:08.271Z,4.73
2019-04-27T16:05:38.363Z,6.73
2019-04-27T16:08:12.940Z,4.87
2019-04-27T16:10:40.285Z,4.27
2019-04-27T16:13:13.503Z,3.17
2019-04-27T16:15:40.344Z,3.40
2019-04-27T16:18:09.210Z,3.43
2019-04-27T16:20:38.162Z,3.47
2019-04-27T16:23:08.756Z,4.40
2019-04-27T16:25:47.862Z,3.60
2019-04-27T16:28:09.599Z,7.80
2019-04-27T16:30:39.189Z,5.30
2019-04-27T16:33:08.717Z,3.90
2019-04-27T16:35:38.725Z,6.40
2019-04-27T16:38:26.669Z,5.07
2019-04-27T16:40:59.686Z,4.63
2019-04-27T16:43:30.048Z,4.90
2019-04-27T16:45:57.908Z,3.70
2019-04-27T16:48:28.090Z,5.03
2019-04-27T16:50:59.241Z,4.47
2019-04-27T16:53:30.182Z,5.73
2019-04-27T16:56:14.410Z,6.93
2019-04-27T16:58:39.514Z,4.60
2019-04-27T17:01:15.890Z,4.87
2019-04-27T17:03:44.868Z,3.40
2019-04-27T17:06:13.662Z,3.17
2019-04-27T17:08:42.313Z,3.00
2019-04-27T17:11:13.623Z,3.13
2019-04-27T17:13:48.406Z,4.27
2019-04-27T17:16:33.993Z,4.17
2019-04-27T17:19:12.453Z,2.77
2019-04-27T17:21:41.470Z,4.47
2019-04-27T17:24:10.030Z,2.97
2019-04-27T17:26:41.203Z,2.10
2019-04-27T17:29:16.669Z,2.17
2019-04-27T17:31:50.406Z,3.97
2019-04-27T17:34:18.935Z,3.87
2019-04-27T17:36:49.751Z,5.37
2019-04-27T17:39:19.203Z,3.87
2019-04-27T17:41:52.087Z,4.97
2019-04-27T17:44:22.658Z,3.90
2019-04-27T17:46:51.236Z,4.83
2019-04-27T17:49:20.128Z,6.33
2019-04-27T17:51:48.883Z,6.13
2019-04-27T17:54:18.208Z,4.07
2019-04-27T17:56:50.966Z,5.03
2019-04-27T17:59:20.758Z,3.50
2019-04-27T18:01:49.627Z,4.70
2019-04-27T18:04:18.645Z,4.13
2019-04-27T18:06:48.402Z,4.07
2019-04-27T18:09:18.890Z,4.80
2019-04-27T18:11:48.646Z,4.47
2019-04-27T18:14:19.283Z,3.53
2019-04-27T18:16:48.371Z,5.40
2019-04-27T18:19:25.430Z,5.43
2019-04-27T18:22:01.976Z,4.20
2019-04-27T18:24:39.154Z,4.87
2019-04-27T18:27:23.698Z,5.23
2019-04-27T18:29:54.214Z,3.77
2019-04-27T18:32:23.577Z,5.63
2019-04-27T18:34:53.431Z,6.97
2019-04-27T18:37:25.003Z,8.47
2019-04-27T18:39:54.865Z,5.57
2019-04-27T18:42:23.272Z,7.13
2019-04-27T18:44:53.459Z,5.90
2019-04-27T18:47:22.519Z,5.57
2019-04-27T18:50:10.877Z,7.90
2019-04-27T18:52:47.489Z,3.80
2019-04-27T18:55:16.689Z,4.77
2019-04-27T18:57:45.880Z,5.47
2019-04-27T19:00:17.683Z,5.53
2019-04-27T19:02:50.033Z,6.80
2019-04-27T19:05:18.701Z,6.07
2019-04-27T19:07:48.456Z,7.43
2019-04-27T19:10:19.229Z,8.30
2019-04-27T19:12:48.464Z,9.67
2019-04-27T19:15:18.375Z,8.70
2019-04-27T19:17:48.851Z,6.40
2019-04-27T19:20:18.630Z,7.87
2019-04-27T19:22:49.083Z,7.37
2019-04-27T19:25:29.202Z,7.50
2019-04-27T19:28:18.632Z,7.73
2019-04-27T19:30:51.850Z,5.23
2019-04-27T19:33:20.751Z,5.83
2019-04-27T19:35:49.279Z,6.77
2019-04-27T19:38:18.627Z,5.43
2019-04-27T19:40:47.417Z,6.92
2019-04-27T19:43:18.091Z,5.37
2019-04-27T19:45:48.231Z,6.77
2019-04-27T19:48:18.185Z,4.67
2019-04-27T19:50:47.129Z,4.00
2019-04-27T19:53:15.839Z,4.90
2019-04-27T19:55:51.431Z,4.50
2019-04-27T19:58:20.013Z,4.53
2019-04-27T20:01:09.624Z,6.97
2019-04-27T20:03:33.734Z,5.60
2019-04-27T20:06:02.372Z,6.73
2019-04-27T20:08:33.125Z,9.97
2019-04-27T20:11:01.792Z,6.53
2019-04-27T20:13:30.720Z,6.57
2019-04-27T20:16:00.906Z,6.80
2019-04-27T20:18:31.646Z,7.83
2019-04-27T20:21:00.214Z,9.70
2019-04-27T20:23:30.745Z,5.73
2019-04-27T20:25:59.648Z,9.87
2019-04-27T20:28:28.271Z,6.23
2019-04-27T20:30:57.149Z,8.10
2019-04-27T20:33:25.974Z,6.73
2019-04-27T20:35:54.793Z,6.30
2019-04-27T20:38:23.508Z,6.73
2019-04-27T20:40:52.996Z,5.80
2019-04-27T20:43:24.691Z,6.97
2019-04-27T20:45:53.140Z,6.90
2019-04-27T20:48:21.779Z,7.30
2019-04-27T20:50:51.293Z,7.27
2019-04-27T20:53:23.585Z,6.80
2019-04-27T20:55:52.270Z,9.53
2019-04-27T20:58:21.259Z,10.10
2019-04-27T21:00:51.791Z,8.90
2019-04-27T21:03:26.788Z,9.60
2019-04-27T21:06:13.033Z,8.00
2019-04-27T21:08:42.416Z,7.77
2019-04-27T21:11:11.861Z,7.67
2019-04-27T21:13:40.685Z,9.17
2019-04-27T21:16:10.926Z,8.60
2019-04-27T21:18:41.857Z,7.03
2019-04-27T21:21:11.409Z,9.80
2019-04-27T21:23:41.458Z,6.60
2019-04-27T21:26:10.439Z,8.03
2019-04-27T21:28:39.115Z,7.97
2019-04-27T21:31:07.977Z,7.20
2019-04-27T21:33:36.655Z,8.97
2019-04-27T21:36:05.445Z,7.67
2019-04-27T21:38:34.159Z,7.87
2019-04-27T21:41:04.042Z,7.97
2019-04-27T21:43:33.417Z,6.63
2019-04-27T21:46:02.198Z,7.57
2019-04-27T21:48:31.279Z,6.43
2019-04-27T21:51:01.545Z,9.07
2019-04-27T21:53:48.875Z,6.73
2019-04-27T21:56:17.618Z,7.63
2019-04-27T21:58:47.315Z,6.63
2019-04-27T22:01:29.226Z,7.17
2019-04-27T22:03:58.178Z,8.07
2019-04-27T22:06:26.982Z,6.20
2019-04-27T22:08:55.724Z,5.87
2019-04-27T22:11:24.663Z,7.53
2019-04-27T22:13:53.484Z,6.73
2019-04-27T22:16:22.382Z,6.27
2019-04-27T22:18:51.947Z,5.43
2019-04-27T22:21:21.610Z,5.40
2019-04-27T22:23:55.825Z,7.23
2019-04-27T22:26:24.530Z,6.73
2019-04-27T22:28:53.272Z,6.67
2019-04-27T22:31:22.169Z,6.07
2019-04-27T22:33:52.529Z,8.37
2019-04-27T22:36:21.316Z,5.57
2019-04-27T22:38:51.565Z,6.37
2019-04-27T22:41:38.770Z,6.70
2019-04-27T22:44:46.703Z,5.33
2019-04-27T22:47:15.417Z,6.17
2019-04-27T22:49:44.053Z,5.97
2019-04-27T22:52:12.868Z,6.50
2019-04-27T22:54:42.133Z,5.67
2019-04-27T22:57:31.300Z,6.27
2019-04-27T23:00:13.716Z,5.87
2019-04-27T23:02:47.876Z,5.77
2019-04-27T23:05:16.564Z,5.73
2019-04-27T23:07:45.280Z,4.20
2019-04-27T23:10:14.156Z,6.20
2019-04-27T23:12:42.779Z,6.07
2019-04-27T23:15:15.813Z,5.43
2019-04-27T23:17:58.072Z,8.10
2019-04-27T23:20:26.888Z,7.27
2019-04-27T23:22:55.770Z,6.03
2019-04-27T23:25:24.660Z,5.80
2019-04-27T23:27:53.458Z,5.87
2019-04-27T23:30:27.820Z,5.37
2019-04-27T23:32:56.488Z,5.10
2019-04-27T23:35:25.054Z,5.97
2019-04-27T23:37:53.759Z,7.17
2019-04-27T23:40:22.645Z,6.27
2019-04-27T23:42:51.592Z,6.33
2019-04-27T23:45:22.303Z,4.97
2019-04-27T23:47:50.893Z,7.00
2019-04-27T23:50:19.556Z,5.60
2019-04-27T23:53:26.909Z,5.60
2019-04-27T23:55:55.479Z,7.20
2019-04-27T23:58:24.185Z,5.63
